Time;durP1;ratioP1;P1;durP2;ratioP2;P2;SDS_P1;SDS_P2;PMS_P1;PMS_P2;Temp;Humidity;BMP_temperature;BMP_pressure;BME280_temperature;BME280_humidity;BME280_pressure;Samples;Min_cycle;Max_cycle;Signal;HPM_P1;HPM_P2
2020/12/16 00:02:14;;;;;;;35.60;19.53;;;;;;;2.21;83.65;99076.28;4937261;28;20118;-63
2020/12/16 00:04:39;;;;;;;32.33;19.90;;;;;;;2.21;83.85;99071.22;4936996;29;20028;-63
2020/12/16 00:07:05;;;;;;;30.77;16.93;;;;;;;2.25;83.72;99073.00;4945701;28;20043;-63
2020/12/16 00:09:30;;;;;;;36.07;19.53;;;;;;;2.23;83.32;99072.13;4955615;28;20402;-62
2020/12/16 00:11:56;;;;;;;38.63;18.87;;;;;;;2.23;83.30;99079.72;4937919;29;20460;-62
2020/12/16 00:14:21;;;;;;;33.37;18.10;;;;;;;2.23;83.36;99075.53;4936885;29;20357;-62
2020/12/16 00:16:46;;;;;;;36.30;18.57;;;;;;;2.28;83.25;99075.63;4938065;29;20052;-62
2020/12/16 00:19:12;;;;;;;38.00;20.10;;;;;;;2.36;83.20;99075.75;4938803;29;20439;-62
2020/12/16 00:21:37;;;;;;;40.90;18.87;;;;;;;2.44;82.79;99079.31;4957032;29;20035;-62
2020/12/16 00:24:03;;;;;;;36.73;18.97;;;;;;;2.44;83.03;99075.09;4956893;29;20031;-62
2020/12/16 00:26:28;;;;;;;32.53;19.30;;;;;;;2.43;83.05;99072.53;4957374;29;20046;-62
2020/12/16 00:28:53;;;;;;;36.37;19.60;;;;;;;2.41;83.29;99075.06;4942214;28;20076;-62
2020/12/16 00:31:19;;;;;;;34.57;19.50;;;;;;;2.40;83.26;99083.44;4937428;29;20034;-62
2020/12/16 00:33:44;;;;;;;37.73;19.10;;;;;;;2.45;82.96;99078.50;4935870;29;20027;-62
2020/12/16 00:36:10;;;;;;;33.57;19.37;;;;;;;2.49;83.25;99091.22;4936863;29;20369;-62
2020/12/16 00:38:35;;;;;;;39.27;21.03;;;;;;;2.47;83.65;99089.47;4937865;29;20031;-62
2020/12/16 00:41:00;;;;;;;37.03;18.83;;;;;;;2.48;83.15;99087.00;4938141;29;20429;-62
2020/12/16 00:43:26;;;;;;;39.60;19.97;;;;;;;2.47;83.15;99085.28;4937585;29;20412;-62
2020/12/16 00:45:51;;;;;;;39.07;20.73;;;;;;;2.51;83.04;99094.63;4936203;28;20110;-62
2020/12/16 00:48:17;;;;;;;44.87;20.63;;;;;;;2.48;83.27;99099.63;4936612;29;20035;-62
2020/12/16 00:50:43;;;;;;;37.20;19.30;;;;;;;2.57;82.92;99104.91;4949788;29;20042;-62
2020/12/16 00:53:08;;;;;;;35.30;17.63;;;;;;;2.60;82.78;99107.47;4957260;29;20464;-62
2020/12/16 00:55:33;;;;;;;33.43;18.33;;;;;;;2.57;82.89;99107.44;4957662;29;20053;-62
2020/12/16 00:57:59;;;;;;;34.30;18.33;;;;;;;2.59;82.66;99105.75;4957363;29;20042;-62
2020/12/16 01:00:24;;;;;;;34.87;17.53;;;;;;;2.55;82.50;99103.13;4955854;28;20121;-62
2020/12/16 01:02:50;;;;;;;33.87;18.60;;;;;;;2.58;82.57;99106.59;4956319;29;20089;-62
2020/12/16 01:05:17;;;;;;;38.73;19.70;;;;;;;2.54;83.00;99107.38;4946588;28;20030;-62
2020/12/16 01:07:42;;;;;;;35.73;17.77;;;;;;;2.53;83.20;99110.72;4937520;29;20036;-62
2020/12/16 01:10:09;;;;;;;37.73;19.40;;;;;;;2.50;83.41;99107.28;4936231;29;20397;-62
2020/12/16 01:12:39;;;;;;;33.13;18.57;;;;;;;2.49;83.43;99103.03;4936917;29;20465;-62
2020/12/16 01:15:10;;;;;;;34.63;17.50;;;;;;;2.53;83.54;99105.66;4937218;29;20110;-62
2020/12/16 01:17:39;;;;;;;33.67;18.87;;;;;;;2.53;83.53;99104.78;4939258;28;20078;-62
2020/12/16 01:20:08;;;;;;;34.47;19.13;;;;;;;2.52;83.38;99113.19;4945023;28;20059;-62
2020/12/16 01:22:37;;;;;;;35.27;18.03;;;;;;;2.51;83.57;99111.50;4945366;28;20456;-62
2020/12/16 01:25:03;;;;;;;32.10;18.03;;;;;;;2.47;83.20;99112.25;4948626;28;20114;-63
2020/12/16 01:27:29;;;;;;;31.70;16.23;;;;;;;2.50;83.19;99114.88;4946780;28;20061;-62
2020/12/16 01:29:54;;;;;;;31.83;16.80;;;;;;;2.59;83.07;99117.59;4945039;28;20026;-61
2020/12/16 01:32:19;;;;;;;37.17;17.83;;;;;;;2.56;83.18;99113.31;4941295;28;20427;-62
2020/12/16 01:34:45;;;;;;;35.93;19.00;;;;;;;2.59;83.11;99110.81;4951063;28;20531;-61
2020/12/16 01:37:10;;;;;;;35.30;19.70;;;;;;;2.55;83.30;99121.72;4948746;28;20024;-62
2020/12/16 01:39:36;;;;;;;31.70;17.33;;;;;;;2.57;82.63;99125.13;4941868;28;20357;-61
2020/12/16 01:42:01;;;;;;;31.13;17.37;;;;;;;2.51;83.18;99127.53;4939773;29;20027;-63
2020/12/16 01:44:29;;;;;;;36.23;17.90;;;;;;;2.61;82.99;99137.03;4935802;29;20114;-62
2020/12/16 01:47:00;;;;;;;36.10;18.80;;;;;;;2.63;82.69;99139.59;4935921;29;20071;-62
2020/12/16 01:49:26;;;;;;;35.37;18.30;;;;;;;2.59;82.79;99133.59;4937827;29;20035;-62
2020/12/16 01:51:57;;;;;;;40.83;20.47;;;;;;;2.67;82.92;99127.00;4955651;29;20050;-62
2020/12/16 01:54:24;;;;;;;32.70;18.23;;;;;;;2.68;82.91;99123.66;4937934;28;20365;-61
2020/12/16 01:57:02;;;;;;;35.13;17.77;;;;;;;2.65;82.88;99122.75;4936340;29;20028;-61
2020/12/16 01:59:29;;;;;;;30.90;18.40;;;;;;;2.63;83.18;99127.78;4935714;28;20071;-62
2020/12/16 02:01:55;;;;;;;39.43;19.40;;;;;;;2.65;82.94;99120.22;4935531;29;20064;-62
2020/12/16 02:04:28;;;;;;;34.80;18.50;;;;;;;2.63;83.01;99124.41;4935343;28;20031;-62
2020/12/16 02:06:57;;;;;;;34.80;17.90;;;;;;;2.64;83.00;99123.56;4936445;29;20127;-62
2020/12/16 02:09:23;;;;;;;36.73;20.67;;;;;;;2.61;82.74;99137.03;4934556;28;20346;-62
2020/12/16 02:11:50;;;;;;;38.03;20.13;;;;;;;2.61;83.03;99126.91;4936150;29;20046;-62
2020/12/16 02:14:16;;;;;;;32.97;18.20;;;;;;;2.66;82.58;99127.88;4935497;29;20158;-61
2020/12/16 02:16:41;;;;;;;37.40;17.73;;;;;;;2.68;82.74;99131.25;4936649;29;20031;-61
2020/12/16 02:19:08;;;;;;;35.97;19.97;;;;;;;2.72;83.17;99127.09;4947015;28;20062;-62
2020/12/16 02:21:34;;;;;;;39.23;19.03;;;;;;;2.62;82.80;99126.09;4957929;28;20408;-63
2020/12/16 02:24:08;;;;;;;33.60;17.83;;;;;;;2.66;82.90;99127.00;4958282;29;20031;-62
2020/12/16 02:26:39;;;;;;;39.87;19.20;;;;;;;2.66;82.88;99137.97;4959624;29;20093;-62
2020/12/16 02:29:06;;;;;;;35.90;19.17;;;;;;;2.60;83.22;99135.31;4959554;29;20111;-62
2020/12/16 02:31:34;;;;;;;37.63;19.43;;;;;;;2.64;83.29;99139.63;4958242;28;20038;-62
2020/12/16 02:33:59;;;;;;;34.97;19.37;;;;;;;2.61;83.29;99137.03;4958229;29;20035;-63
2020/12/16 02:36:25;;;;;;;38.53;19.60;;;;;;;2.65;83.67;99141.34;4958762;29;20108;-62
2020/12/16 02:38:51;;;;;;;36.90;19.80;;;;;;;2.71;83.30;99128.81;4959119;29;20035;-63
2020/12/16 02:41:18;;;;;;;42.30;19.97;;;;;;;2.76;83.44;99127.19;4959067;29;20026;-62
2020/12/16 02:43:44;;;;;;;37.93;19.57;;;;;;;2.72;83.41;99125.44;4958244;28;20023;-62
2020/12/16 02:46:09;;;;;;;36.03;18.80;;;;;;;2.73;83.01;99118.69;4958892;28;20338;-63
2020/12/16 02:48:34;;;;;;;37.57;19.30;;;;;;;2.74;83.30;99121.28;4957714;29;20045;-63
2020/12/16 02:51:00;;;;;;;37.83;20.03;;;;;;;2.79;82.93;99110.38;4945992;29;20141;-63
2020/12/16 02:53:25;;;;;;;38.80;21.87;;;;;;;2.78;82.80;99112.06;4958574;29;20042;-63
2020/12/16 02:55:51;;;;;;;41.93;19.77;;;;;;;2.77;83.06;99110.34;4958714;29;20031;-62
2020/12/16 02:58:16;;;;;;;40.23;21.10;;;;;;;2.79;82.68;99108.72;4948281;28;20024;-63
2020/12/16 03:00:41;;;;;;;35.77;20.13;;;;;;;2.82;82.61;99108.75;4939589;29;20023;-62
2020/12/16 03:03:07;;;;;;;31.40;17.67;;;;;;;2.84;82.65;99101.19;4949992;28;20139;-63
2020/12/16 03:05:32;;;;;;;39.73;21.03;;;;;;;2.89;82.60;99092.00;4957357;29;20027;-62
2020/12/16 03:07:57;;;;;;;39.83;19.17;;;;;;;2.88;82.81;99078.50;4955098;28;20062;-63
2020/12/16 03:10:23;;;;;;;37.83;19.17;;;;;;;2.91;82.29;99086.16;4957713;29;20031;-62
2020/12/16 03:12:48;;;;;;;39.10;20.90;;;;;;;2.88;82.53;99078.50;4956290;28;20061;-62
2020/12/16 03:15:13;;;;;;;33.13;18.10;;;;;;;2.90;82.14;99081.91;4958258;29;20035;-63
2020/12/16 03:17:39;;;;;;;39.10;18.63;;;;;;;2.93;82.25;99088.72;4953012;28;20085;-64
2020/12/16 03:20:04;;;;;;;38.07;19.73;;;;;;;2.94;82.32;99092.94;4946540;28;20019;-64
2020/12/16 03:22:30;;;;;;;36.93;20.53;;;;;;;2.93;82.58;99101.38;4956408;28;20035;-64
2020/12/16 03:24:55;;;;;;;38.23;20.43;;;;;;;2.88;82.61;99098.75;4947533;28;20036;-64
2020/12/16 03:27:21;;;;;;;47.77;23.13;;;;;;;2.85;82.48;99107.94;4946293;28;20445;-64
2020/12/16 03:29:47;;;;;;;36.80;20.20;;;;;;;2.81;82.85;99103.66;4944948;28;20031;-63
2020/12/16 03:32:12;;;;;;;39.00;19.77;;;;;;;2.81;83.43;99098.59;4940215;28;20063;-64
2020/12/16 03:34:38;;;;;;;36.67;20.60;;;;;;;2.81;82.87;99112.09;4942149;28;20023;-63
2020/12/16 03:37:04;;;;;;;43.47;21.27;;;;;;;2.76;83.16;99112.00;4939888;28;20465;-64
2020/12/16 03:39:29;;;;;;;35.23;20.40;;;;;;;2.72;83.48;99116.97;4939011;28;20116;-64
2020/12/16 03:41:55;;;;;;;39.03;19.33;;;;;;;2.68;83.77;99116.06;4944566;28;20054;-64
2020/12/16 03:44:20;;;;;;;37.13;19.57;;;;;;;2.64;83.50;99116.84;4943901;28;20031;-64
2020/12/16 03:46:50;;;;;;;33.00;18.90;;;;;;;2.73;83.49;99111.97;4947879;28;20035;-64
2020/12/16 03:49:16;;;;;;;42.67;20.60;;;;;;;2.59;83.78;99118.41;4948904;28;20499;-63
2020/12/16 03:51:41;;;;;;;40.47;20.47;;;;;;;2.59;83.54;99115.88;4946595;28;20023;-63
2020/12/16 03:54:07;;;;;;;37.87;20.37;;;;;;;2.62;83.49;99105.00;4940423;28;20448;-63
2020/12/16 03:56:33;;;;;;;34.47;20.33;;;;;;;2.57;83.26;99116.69;4940607;28;20031;-64
2020/12/16 03:58:58;;;;;;;39.80;19.67;;;;;;;2.59;83.12;99112.53;4939042;28;20020;-64
2020/12/16 04:01:24;;;;;;;37.93;19.60;;;;;;;2.61;83.11;99109.19;4944601;28;20094;-64
2020/12/16 04:03:49;;;;;;;40.57;21.07;;;;;;;2.65;83.59;99105.91;4948868;28;20031;-64
2020/12/16 04:06:15;;;;;;;30.70;16.97;;;;;;;2.71;82.93;99105.19;4950889;28;20094;-64
2020/12/16 04:08:43;;;;;;;37.07;20.27;;;;;;;2.82;82.76;99092.72;4945949;28;20056;-64
2020/12/16 04:11:11;;;;;;;33.37;17.97;;;;;;;2.85;82.75;99095.28;4942060;28;20118;-64
2020/12/16 04:13:37;;;;;;;36.40;19.67;;;;;;;2.85;83.10;99092.75;4943007;28;20536;-64
2020/12/16 04:16:04;;;;;;;35.40;19.87;;;;;;;2.84;82.91;99091.06;4941115;28;20047;-64
2020/12/16 04:18:30;;;;;;;35.03;19.10;;;;;;;2.82;82.82;99102.84;4939541;28;20036;-63
2020/12/16 04:20:55;;;;;;;35.10;19.77;;;;;;;2.81;83.21;99096.06;4951554;28;20027;-63
2020/12/16 04:23:21;;;;;;;29.53;17.77;;;;;;;2.83;82.96;99089.34;4949467;28;20035;-63
2020/12/16 04:25:46;;;;;;;32.63;18.60;;;;;;;2.75;83.07;99092.59;4950807;28;20030;-63
2020/12/16 04:28:11;;;;;;;38.17;21.23;;;;;;;2.72;83.08;99101.78;4951911;28;20043;-63
2020/12/16 04:30:37;;;;;;;41.57;20.50;;;;;;;2.80;83.07;99110.38;4943068;28;20066;-61
2020/12/16 04:33:02;;;;;;;36.03;18.57;;;;;;;2.82;82.92;99118.88;4944385;28;20031;-63
2020/12/16 04:35:28;;;;;;;39.03;21.10;;;;;;;2.85;83.17;99113.88;4935499;29;20031;-63
2020/12/16 04:37:54;;;;;;;42.40;22.27;;;;;;;2.88;82.75;99105.50;4935017;29;20259;-63
2020/12/16 04:40:21;;;;;;;46.93;25.00;;;;;;;2.86;83.25;99102.94;4934725;28;20043;-63
2020/12/16 04:43:00;;;;;;;50.43;27.07;;;;;;;2.92;83.08;99105.59;4935176;29;20087;-63
2020/12/16 04:45:26;;;;;;;46.67;23.93;;;;;;;2.88;83.14;99108.88;4935542;28;20453;-63
2020/12/16 04:47:52;;;;;;;45.67;22.90;;;;;;;2.85;82.98;99111.34;4935706;29;20090;-62
2020/12/16 04:50:17;;;;;;;36.33;18.87;;;;;;;2.81;82.60;99111.25;4946311;29;20098;-63
2020/12/16 04:52:48;;;;;;;37.37;20.40;;;;;;;2.90;82.96;99112.28;4956773;29;20031;-63
2020/12/16 04:55:16;;;;;;;34.17;18.00;;;;;;;2.83;82.80;99109.63;4955662;28;20114;-62
2020/12/16 04:57:46;;;;;;;32.60;18.27;;;;;;;2.86;83.08;99113.06;4938159;29;20504;-63
2020/12/16 05:00:12;;;;;;;31.70;16.83;;;;;;;2.85;82.54;99108.81;4937230;29;20071;-63
2020/12/16 05:02:37;;;;;;;29.27;18.20;;;;;;;2.87;81.92;99111.38;4937210;29;20119;-63
2020/12/16 05:05:03;;;;;;;32.47;18.47;;;;;;;2.85;82.24;99113.88;4937231;29;20054;-63
2020/12/16 05:07:29;;;;;;;31.77;16.93;;;;;;;2.83;82.81;99119.75;4947174;28;20093;-62
2020/12/16 05:09:55;;;;;;;30.20;16.33;;;;;;;2.78;82.58;99117.13;4956419;29;20042;-62
2020/12/16 05:12:21;;;;;;;30.97;17.83;;;;;;;2.75;82.04;99124.66;4956047;28;20118;-62
2020/12/16 05:14:46;;;;;;;30.50;17.30;;;;;;;2.82;81.90;99123.09;4975961;28;20356;-62
2020/12/16 05:17:12;;;;;;;32.73;16.93;;;;;;;2.81;82.09;99117.16;4974027;28;20037;-62
2020/12/16 05:19:41;;;;;;;29.03;15.87;;;;;;;2.84;82.00;99119.78;4971110;28;20031;-62
2020/12/16 05:22:20;;;;;;;30.43;15.83;;;;;;;2.94;81.22;99128.38;4955214;29;20130;-62
2020/12/16 05:24:48;;;;;;;31.40;17.20;;;;;;;2.87;81.18;99134.16;4955521;28;20067;-63
2020/12/16 05:27:19;;;;;;;30.77;16.50;;;;;;;2.87;81.41;99134.16;4956293;28;20035;-62
2020/12/16 05:29:45;;;;;;;28.13;16.17;;;;;;;2.86;81.81;99142.56;4963090;28;20030;-62
2020/12/16 05:32:15;;;;;;;28.60;15.33;;;;;;;2.92;81.64;99148.63;4958687;28;20031;-62
2020/12/16 05:34:40;;;;;;;28.53;14.40;;;;;;;2.87;81.28;99154.41;4960529;28;20460;-62
2020/12/16 05:37:25;;;;;;;31.87;16.63;;;;;;;2.84;81.47;99155.22;4937959;28;20031;-62
2020/12/16 05:40:10;;;;;;;23.67;14.40;;;;;;;2.86;81.11;99163.69;4952700;28;20106;-62
2020/12/16 05:42:36;;;;;;;26.33;15.35;;;;;;;2.74;80.88;99159.25;4928597;28;20042;-62
2020/12/16 05:45:10;;;;;;;24.97;14.47;;;;;;;2.73;81.07;99164.25;4955889;29;20043;-61
2020/12/16 05:47:39;;;;;;;30.58;16.13;;;;;;;2.72;80.65;99172.66;4956134;29;20094;-61
2020/12/16 05:50:15;;;;;;;27.60;16.23;;;;;;;2.72;80.68;99173.53;4951419;28;20082;-63
2020/12/16 05:52:40;;;;;;;29.40;16.13;;;;;;;2.68;80.38;99170.91;4937075;29;20031;-62
2020/12/16 05:55:06;;;;;;;29.77;15.33;;;;;;;2.66;80.32;99170.88;4945941;28;20039;-62
2020/12/16 05:57:31;;;;;;;31.20;17.17;;;;;;;2.64;79.84;99176.72;4959818;29;20039;-62
2020/12/16 06:00:06;;;;;;;27.63;16.93;;;;;;;2.67;79.72;99176.81;4958660;29;20031;-63
2020/12/16 06:02:36;;;;;;;;;;;;;;;2.68;79.48;99174.28;4978218;28;20045;-62
2020/12/16 06:05:03;;;;;;;30.73;16.63;;;;;;;2.63;79.75;99169.97;4961087;28;19918;-62
2020/12/16 06:07:32;;;;;;;26.77;15.40;;;;;;;2.61;80.06;99172.47;4977222;28;20026;-62
2020/12/16 06:09:57;;;;;;;29.33;16.93;;;;;;;2.57;80.02;99168.16;4978090;28;20397;-63
2020/12/16 06:12:28;;;;;;;29.33;16.90;;;;;;;2.67;79.49;99177.63;4978590;28;20058;-63
2020/12/16 06:15:13;;;;;;;30.17;17.77;;;;;;;2.61;79.89;99174.13;4977260;28;20436;-63
2020/12/16 06:17:44;;;;;;;25.58;15.40;;;;;;;2.64;80.11;99175.06;4978521;28;20511;-64
2020/12/16 06:20:14;;;;;;;28.13;15.07;;;;;;;2.68;79.79;99175.97;4959377;28;20472;-63
2020/12/16 06:22:42;;;;;;;32.23;16.30;;;;;;;2.65;79.99;99171.72;4939456;29;20020;-63
2020/12/16 06:25:10;;;;;;;27.53;16.87;;;;;;;2.68;80.07;99170.91;4956942;28;20082;-63
2020/12/16 06:27:43;;;;;;;32.33;18.43;;;;;;;2.73;79.48;99172.72;4977198;28;20344;-63
2020/12/16 06:30:15;;;;;;;31.90;16.23;;;;;;;2.69;80.03;99181.06;4977009;28;20033;-63
2020/12/16 06:32:52;;;;;;;31.67;17.00;;;;;;;2.80;79.46;99180.44;4977794;28;20086;-62
2020/12/16 06:35:19;;;;;;;30.00;16.87;;;;;;;2.71;79.64;99186.19;4967137;28;20015;-62
2020/12/16 06:37:45;;;;;;;30.67;17.97;;;;;;;2.70;79.94;99184.47;4958865;29;20496;-62
2020/12/16 06:40:11;;;;;;;31.57;17.13;;;;;;;2.75;80.03;99186.28;4949857;28;20102;-62
2020/12/16 06:42:37;;;;;;;32.57;17.60;;;;;;;2.81;79.60;99180.47;4939491;29;20075;-62
2020/12/16 06:45:13;;;;;;;32.73;20.17;;;;;;;2.90;79.13;99184.84;4932697;28;20467;-62
2020/12/16 06:47:39;;;;;;;32.70;18.87;;;;;;;2.89;79.16;99186.53;4977555;28;20026;-62
2020/12/16 06:50:21;;;;;;;32.60;18.87;;;;;;;2.98;79.32;99194.31;4968519;28;20106;-62
2020/12/16 06:52:47;;;;;;;30.37;16.30;;;;;;;2.89;79.59;99194.13;4958071;28;20027;-63
2020/12/16 06:55:13;;;;;;;30.40;17.60;;;;;;;2.93;79.54;99192.53;4962540;28;20408;-62
2020/12/16 06:57:47;;;;;;;34.20;19.30;;;;;;;2.94;79.37;99179.03;4976565;28;20050;-62
2020/12/16 07:00:23;;;;;;;32.33;17.60;;;;;;;3.02;79.05;99188.50;4969955;28;20023;-61
2020/12/16 07:02:52;;;;;;;35.43;20.00;;;;;;;3.02;79.33;99190.16;4950083;29;20047;-61
2020/12/16 07:05:36;;;;;;;35.37;20.27;;;;;;;3.03;78.78;99190.19;4958772;28;20033;-61
2020/12/16 07:08:03;;;;;;;31.27;17.87;;;;;;;3.00;79.06;99195.22;4955066;28;20111;-61
2020/12/16 07:10:34;;;;;;;33.90;18.40;;;;;;;3.05;78.83;99190.25;4963403;28;20027;-61
2020/12/16 07:13:26;;;;;;;27.13;15.63;;;;;;;3.02;79.17;99191.03;4940612;28;20380;-61
2020/12/16 07:16:33;;;;;;;29.30;15.73;;;;;;;2.92;79.09;99194.22;4957816;29;20034;-61
2020/12/16 07:18:58;;;;;;;32.33;17.13;;;;;;;2.88;79.68;99204.25;4945301;28;20044;-62
2020/12/16 07:21:26;;;;;;;31.73;17.70;;;;;;;2.90;79.90;99215.25;4956658;29;20405;-62
2020/12/16 07:23:54;;;;;;;30.10;16.80;;;;;;;2.86;80.14;99218.53;4955920;28;20023;-62
2020/12/16 07:26:30;;;;;;;30.27;16.97;;;;;;;2.89;80.01;99211.84;4955811;28;20407;-62
2020/12/16 07:28:59;;;;;;;27.77;16.37;;;;;;;2.83;78.89;99221.88;4957068;28;20027;-62
2020/12/16 07:31:25;;;;;;;28.97;15.93;;;;;;;2.66;78.88;99220.66;4957441;29;20042;-61
2020/12/16 07:33:50;;;;;;;27.47;15.37;;;;;;;2.78;79.06;99225.97;4957704;28;20023;-61
2020/12/16 07:36:18;;;;;;;26.10;15.93;;;;;;;2.79;79.06;99229.38;4957467;29;20110;-61
2020/12/16 07:38:51;;;;;;;29.60;15.83;;;;;;;2.86;78.61;99223.59;4959259;28;20365;-61
2020/12/16 07:41:43;;;;;;;26.23;15.60;;;;;;;2.93;78.26;99221.22;4948438;28;20078;-61
2020/12/16 07:44:09;;;;;;;30.10;15.87;;;;;;;2.88;79.08;99227.03;4964401;28;20047;-61
2020/12/16 07:46:35;;;;;;;31.40;16.73;;;;;;;2.92;78.36;99222.06;4966333;28;20037;-61
2020/12/16 07:49:00;;;;;;;32.37;17.57;;;;;;;2.89;78.82;99214.38;4957732;29;20087;-61
2020/12/16 07:51:26;;;;;;;34.80;16.50;;;;;;;2.97;78.39;99212.03;4956872;28;20449;-62
2020/12/16 07:53:51;;;;;;;32.77;18.07;;;;;;;2.96;78.43;99218.78;4957703;29;20028;-62
2020/12/16 07:56:18;;;;;;;33.73;16.83;;;;;;;3.04;78.32;99214.72;4956695;28;20127;-62
2020/12/16 07:58:44;;;;;;;32.47;15.10;;;;;;;2.98;78.25;99217.09;4957141;29;20464;-62
2020/12/16 08:01:17;;;;;;;30.17;16.60;;;;;;;2.81;78.72;99220.97;4956220;28;20070;-62
2020/12/16 08:03:43;;;;;;;31.60;16.07;;;;;;;2.76;78.88;99225.94;4956276;29;20027;-63
2020/12/16 08:06:09;;;;;;;30.30;16.60;;;;;;;2.69;79.10;99226.63;4944338;29;20353;-62
2020/12/16 08:08:42;;;;;;;31.27;16.37;;;;;;;2.86;78.99;99226.13;4949702;29;20047;-61
2020/12/16 08:11:12;;;;;;;35.83;18.10;;;;;;;2.78;79.45;99222.59;4951101;28;20058;-62
2020/12/16 08:13:37;;;;;;;37.20;17.40;;;;;;;2.75;79.24;99223.38;4951656;28;20121;-62
2020/12/16 08:16:07;;;;;;;36.77;20.23;;;;;;;2.85;79.44;99226.94;4929741;28;20028;-62
2020/12/16 08:18:32;;;;;;;33.00;16.63;;;;;;;2.93;78.96;99233.88;4940228;28;20033;-62
2020/12/16 08:20:58;;;;;;;32.17;17.37;;;;;;;2.95;78.77;99223.78;4955398;28;20035;-62
2020/12/16 08:23:23;;;;;;;34.63;17.53;;;;;;;2.90;78.83;99230.44;4945674;28;20536;-62
2020/12/16 08:25:49;;;;;;;32.33;16.80;;;;;;;3.01;78.36;99222.22;4952917;28;20326;-62
2020/12/16 08:28:24;;;;;;;31.77;16.13;;;;;;;3.17;78.61;99228.47;4944490;28;20437;-62
2020/12/16 08:30:51;;;;;;;32.70;16.92;;;;;;;3.21;78.13;99228.56;4941257;28;20035;-62
2020/12/16 08:33:18;;;;;;;31.67;15.03;;;;;;;3.26;77.79;99230.34;4949763;28;20356;-62
2020/12/16 08:35:52;;;;;;;29.83;16.27;;;;;;;3.35;77.70;99230.53;4939856;28;20023;-62
2020/12/16 08:38:29;;;;;;;35.60;17.53;;;;;;;3.35;76.75;99236.44;4940063;28;20104;-62
2020/12/16 08:40:56;;;;;;;28.83;16.73;;;;;;;3.33;76.74;99244.81;4956390;28;20083;-61
2020/12/16 08:43:30;;;;;;;33.53;16.80;;;;;;;3.39;76.86;99245.81;4955987;28;20031;-62
2020/12/16 08:46:06;;;;;;;32.90;17.17;;;;;;;3.47;77.23;99234.13;4943916;28;20475;-62
2020/12/16 08:48:52;;;;;;;30.17;16.43;;;;;;;3.48;77.20;99245.97;4944065;28;20028;-62
2020/12/16 08:51:21;;;;;;;26.90;15.97;;;;;;;3.32;77.11;99238.91;4950579;28;20023;-62
2020/12/16 08:53:58;;;;;;;28.90;16.63;;;;;;;3.36;77.34;99240.66;4939156;28;20028;-62
2020/12/16 08:56:30;;;;;;;28.47;15.97;;;;;;;3.38;77.79;99240.72;4955005;28;20058;-61
2020/12/16 08:59:04;;;;;;;29.40;15.60;;;;;;;3.44;76.76;99239.13;4926996;29;20086;-61
2020/12/16 09:01:29;;;;;;;30.67;15.80;;;;;;;3.42;76.38;99233.19;4943743;28;20365;-61
2020/12/16 09:03:55;;;;;;;31.57;16.53;;;;;;;3.43;76.66;99237.44;4949072;28;20031;-61
2020/12/16 09:06:21;;;;;;;33.63;16.20;;;;;;;3.39;76.36;99239.88;4955597;28;20023;-61
2020/12/16 09:08:47;;;;;;;34.47;16.23;;;;;;;3.42;76.28;99245.00;4949969;28;20433;-61
2020/12/16 09:11:12;;;;;;;28.37;15.73;;;;;;;3.40;76.42;99233.97;4929528;28;20452;-61
2020/12/16 09:13:38;;;;;;;32.37;17.43;;;;;;;3.41;76.28;99234.00;4955581;28;20142;-60
2020/12/16 09:16:04;;;;;;;28.47;15.73;;;;;;;3.23;77.02;99228.56;4954758;28;20480;-61
2020/12/16 09:18:32;;;;;;;30.93;15.80;;;;;;;3.35;76.77;99240.66;4949481;28;20051;-62
2020/12/16 09:20:58;;;;;;;33.60;17.83;;;;;;;3.38;76.02;99230.56;4945856;28;20027;-62
2020/12/16 09:23:25;;;;;;;31.83;16.03;;;;;;;3.43;76.40;99224.78;4948297;28;20479;-62
2020/12/16 09:25:51;;;;;;;31.20;15.37;;;;;;;3.49;75.73;99224.00;4944478;28;20027;-62
2020/12/16 09:28:18;;;;;;;33.47;16.43;;;;;;;3.55;75.86;99230.06;4943750;28;20028;-62
2020/12/16 09:30:44;;;;;;;35.13;16.57;;;;;;;3.49;76.21;99229.94;4929080;29;20116;-62
2020/12/16 09:33:14;;;;;;;37.03;16.20;;;;;;;3.62;76.28;99228.47;4954127;28;20027;-61
2020/12/16 09:35:40;;;;;;;31.10;15.97;;;;;;;3.60;76.15;99230.16;4959387;28;20054;-61
2020/12/16 09:38:17;;;;;;;29.87;15.63;;;;;;;3.53;76.09;99224.09;4959402;28;20122;-61
2020/12/16 09:40:44;;;;;;;30.20;15.40;;;;;;;3.48;76.13;99227.41;4949154;28;20027;-61
2020/12/16 09:43:10;;;;;;;28.33;16.43;;;;;;;3.55;76.40;99226.66;4959189;28;20023;-61
2020/12/16 09:45:38;;;;;;;29.87;16.87;;;;;;;3.65;76.38;99223.47;4959378;29;20023;-62
2020/12/16 09:48:04;;;;;;;35.40;17.07;;;;;;;3.65;76.29;99224.31;4941481;29;20050;-61
2020/12/16 09:50:35;;;;;;;30.00;16.73;;;;;;;3.73;76.08;99228.69;4951879;28;20106;-61
2020/12/16 09:53:05;;;;;;;30.20;15.63;;;;;;;3.74;76.50;99228.69;4959497;29;20038;-61
2020/12/16 09:55:36;;;;;;;32.17;16.77;;;;;;;3.72;77.04;99230.38;4957750;28;20110;-62
2020/12/16 09:58:06;;;;;;;29.33;17.27;;;;;;;3.72;76.43;99226.97;4959516;29;20027;-62
2020/12/16 10:00:33;;;;;;;33.97;16.30;;;;;;;3.75;77.00;99219.41;4958869;28;20114;-62
2020/12/16 10:03:00;;;;;;;35.70;17.37;;;;;;;3.76;76.33;99232.13;4959118;29;20086;-62
2020/12/16 10:05:25;;;;;;;38.07;18.67;;;;;;;3.64;76.67;99226.84;4949369;28;20437;-62
2020/12/16 10:07:51;;;;;;;31.27;17.63;;;;;;;3.59;77.59;99226.75;4942709;29;20083;-62
2020/12/16 10:10:17;;;;;;;38.70;19.70;;;;;;;3.66;77.58;99220.97;4957818;28;20508;-62
2020/12/16 10:12:43;;;;;;;46.80;22.50;;;;;;;3.72;77.41;99219.38;4940469;29;20052;-63
2020/12/16 10:15:08;;;;;;;46.73;21.87;;;;;;;3.69;77.50;99223.53;4940171;29;20039;-62
2020/12/16 10:17:34;;;;;;;52.67;22.93;;;;;;;3.72;77.94;99225.28;4960577;28;20050;-62
2020/12/16 10:20:01;;;;;;;49.60;23.60;;;;;;;3.74;78.32;99227.84;4959518;28;20027;-63
2020/12/16 10:22:27;;;;;;;54.33;23.80;;;;;;;3.71;78.23;99215.97;4957630;28;20035;-62
2020/12/16 10:24:52;;;;;;;53.07;23.93;;;;;;;3.75;78.21;99221.94;4959652;29;20514;-62
2020/12/16 10:27:18;;;;;;;46.03;21.20;;;;;;;3.79;77.82;99227.09;4957891;28;20058;-62
2020/12/16 10:29:43;;;;;;;53.80;23.70;;;;;;;3.76;78.00;99216.91;4958672;29;20490;-62
2020/12/16 10:32:09;;;;;;;50.70;22.40;;;;;;;3.76;78.02;99223.66;4958741;29;20031;-62
2020/12/16 10:34:34;;;;;;;49.60;21.90;;;;;;;3.80;77.58;99212.75;4958676;28;20027;-63
2020/12/16 10:37:00;;;;;;;49.20;22.13;;;;;;;3.80;77.17;99215.28;4958907;29;20035;-62
2020/12/16 10:39:25;;;;;;;55.33;21.77;;;;;;;3.83;77.56;99208.56;4948595;28;20066;-62
2020/12/16 10:41:53;;;;;;;47.43;20.40;;;;;;;3.83;77.48;99217.84;4939452;29;20098;-62
2020/12/16 10:44:19;;;;;;;48.27;20.57;;;;;;;3.81;78.02;99209.38;4938845;28;20032;-62
2020/12/16 10:46:48;;;;;;;55.60;21.47;;;;;;;3.73;77.96;99208.41;4959327;28;20098;-62
2020/12/16 10:49:14;;;;;;;57.83;23.20;;;;;;;3.74;78.20;99213.47;4958322;29;20090;-62
2020/12/16 10:51:39;;;;;;;44.80;20.37;;;;;;;3.69;78.58;99210.88;4936980;28;20162;-62
2020/12/16 10:54:05;;;;;;;45.67;19.63;;;;;;;3.84;77.84;99210.28;4946944;28;20110;-62
2020/12/16 10:56:30;;;;;;;46.87;20.17;;;;;;;3.79;77.94;99216.09;4956888;28;20027;-62
2020/12/16 10:58:56;;;;;;;51.13;22.10;;;;;;;3.82;77.50;99216.19;4957546;29;20027;-62
2020/12/16 11:01:21;;;;;;;54.83;22.83;;;;;;;3.78;78.05;99222.84;4957804;28;20354;-62
2020/12/16 11:03:47;;;;;;;51.13;22.27;;;;;;;3.74;78.20;99222.75;4958657;29;20111;-62
2020/12/16 11:06:15;;;;;;;54.43;24.07;;;;;;;3.76;78.54;99221.97;4956962;28;20034;-62
2020/12/16 11:08:42;;;;;;;47.20;21.43;;;;;;;3.77;78.36;99225.38;4958666;29;20027;-63
2020/12/16 11:11:07;;;;;;;53.50;20.40;;;;;;;3.70;78.65;99219.31;4957089;28;20027;-62
2020/12/16 11:13:32;;;;;;;51.70;22.37;;;;;;;3.75;77.81;99219.41;4970570;28;20591;-62
2020/12/16 11:15:58;;;;;;;49.07;21.43;;;;;;;3.77;78.22;99218.63;4948396;29;20034;-63
2020/12/16 11:18:23;;;;;;;48.47;22.57;;;;;;;3.64;78.25;99214.16;4967045;28;20097;-62
2020/12/16 11:20:49;;;;;;;45.57;20.30;;;;;;;3.65;78.27;99221.78;4963057;28;20098;-61
2020/12/16 11:23:14;;;;;;;50.97;21.13;;;;;;;3.62;78.54;99219.19;4958982;29;20412;-62
2020/12/16 11:25:40;;;;;;;47.30;21.10;;;;;;;3.63;78.65;99210.78;4955457;28;20352;-62
2020/12/16 11:28:05;;;;;;;43.50;20.00;;;;;;;3.69;78.36;99213.41;4939096;29;20028;-62
2020/12/16 11:30:30;;;;;;;52.87;23.20;;;;;;;3.65;78.18;99213.31;4938042;29;20547;-62